Time;durP1;ratioP1;P1;durP2;ratioP2;P2;SDS_P1;SDS_P2;PMS_P1;PMS_P2;Temp;Humidity;BMP_temperature;BMP_pressure;BME280_temperature;BME280_humidity;BME280_pressure;Samples;Min_cycle;Max_cycle;Signal;HPM_P1;HPM_P2
2023/01/14 00:01:27;;;;;;;0.60;0.60;;;;;4.10;96305.00;;;;5052646;28;20679;-59
2023/01/14 00:03:55;;;;;;;1.00;1.00;;;;;4.20;96307.00;;;;5053489;28;20195;-59
2023/01/14 00:06:25;;;;;;;0.60;0.60;;;;;4.20;96306.00;;;;5052776;28;20188;-59
2023/01/14 00:08:56;;;;;;;0.50;0.50;;;;;4.30;96301.00;;;;5053055;28;20208;-60
2023/01/14 00:11:45;;;;;;;2.43;1.17;;;;;4.30;96299.00;;;;5053200;28;20188;-59
2023/01/14 00:14:13;;;;;;;0.70;0.70;;;;;4.30;96301.00;;;;5052722;28;20204;-60
2023/01/14 00:16:40;;;;;;;0.90;0.90;;;;;4.40;96290.00;;;;5052688;28;20192;-60
2023/01/14 00:19:09;;;;;;;0.60;0.60;;;;;4.20;96295.00;;;;5034852;28;20205;-59
2023/01/14 00:21:38;;;;;;;11.77;1.43;;;;;4.20;96288.00;;;;5052863;28;20299;-59
2023/01/14 00:24:06;;;;;;;1.03;1.03;;;;;4.10;96286.00;;;;5052638;28;20188;-59
2023/01/14 00:26:34;;;;;;;0.60;0.60;;;;;4.00;96296.00;;;;5052845;28;20196;-59
2023/01/14 00:29:01;;;;;;;0.70;0.70;;;;;4.20;96296.00;;;;5052596;28;20702;-59
2023/01/14 00:31:30;;;;;;;1.63;1.53;;;;;4.20;96299.00;;;;5052542;28;20247;-59
2023/01/14 00:34:00;;;;;;;0.60;0.60;;;;;4.00;96302.00;;;;5056262;28;20242;-59
2023/01/14 00:36:28;;;;;;;1.07;1.00;;;;;4.00;96296.00;;;;5056645;28;20231;-60
2023/01/14 00:38:56;;;;;;;0.70;0.70;;;;;4.10;96284.00;;;;5056405;28;20188;-59
2023/01/14 00:41:26;;;;;;;0.70;0.70;;;;;3.90;96287.00;;;;5056594;28;20587;-59
2023/01/14 00:43:55;;;;;;;0.70;0.70;;;;;3.90;96292.00;;;;5056317;28;20199;-60
2023/01/14 00:46:24;;;;;;;0.90;0.90;;;;;4.00;96297.00;;;;5056543;28;20200;-59
2023/01/14 00:48:52;;;;;;;0.90;0.90;;;;;3.90;96293.00;;;;5056399;28;20220;-59
2023/01/14 00:51:20;;;;;;;0.60;0.60;;;;;3.90;96298.00;;;;5056105;28;20196;-59
2023/01/14 00:53:48;;;;;;;0.60;0.60;;;;;3.90;96293.00;;;;5056046;28;20254;-59
2023/01/14 00:56:18;;;;;;;0.67;0.67;;;;;3.80;96302.00;;;;5056019;28;20241;-59
2023/01/14 00:58:46;;;;;;;1.80;0.90;;;;;3.80;96300.00;;;;5055973;28;20193;-59
2023/01/14 01:01:14;;;;;;;0.80;0.80;;;;;3.80;96302.00;;;;5055867;28;20189;-60
2023/01/14 01:03:43;;;;;;;0.70;0.70;;;;;3.80;96298.00;;;;5055829;28;20203;-59
2023/01/14 01:06:11;;;;;;;1.00;1.00;;;;;3.80;96303.00;;;;5055900;28;20192;-59
2023/01/14 01:08:39;;;;;;;0.60;0.60;;;;;3.80;96303.00;;;;5055716;28;20212;-60
2023/01/14 01:11:07;;;;;;;0.70;0.70;;;;;3.80;96309.00;;;;5056301;28;20200;-59
2023/01/14 01:13:36;;;;;;;0.73;0.73;;;;;3.80;96299.00;;;;5055964;28;20788;-60
2023/01/14 01:16:06;;;;;;;0.90;0.90;;;;;3.80;96300.00;;;;5055720;28;20188;-59
2023/01/14 01:18:33;;;;;;;0.70;0.70;;;;;3.80;96300.00;;;;5055925;28;20652;-59
2023/01/14 01:21:06;;;;;;;0.60;0.60;;;;;3.80;96310.00;;;;5055570;28;20193;-59
2023/01/14 01:23:33;;;;;;;1.27;1.17;;;;;3.80;96319.00;;;;5037550;28;20216;-59
2023/01/14 01:26:01;;;;;;;0.60;0.60;;;;;3.70;96318.00;;;;5055777;28;20554;-59
2023/01/14 01:28:28;;;;;;;0.53;0.53;;;;;3.80;96319.00;;;;5037539;28;20223;-59
2023/01/14 01:31:01;;;;;;;0.97;0.97;;;;;3.90;96308.00;;;;5055417;28;20200;-60
2023/01/14 01:33:29;;;;;;;0.70;0.70;;;;;4.10;96317.00;;;;5055373;28;20226;-59
2023/01/14 01:36:01;;;;;;;1.57;1.47;;;;;4.20;96313.00;;;;5055245;28;20270;-59
2023/01/14 01:38:28;;;;;;;0.70;0.70;;;;;4.10;96311.00;;;;5055276;28;20267;-59
2023/01/14 01:40:56;;;;;;;0.60;0.60;;;;;4.10;96314.00;;;;5055471;28;20226;-59
2023/01/14 01:43:25;;;;;;;1.00;1.00;;;;;4.30;96320.00;;;;5055083;28;20626;-59
2023/01/14 01:45:56;;;;;;;0.60;0.60;;;;;4.40;96315.00;;;;5054381;28;20196;-59
2023/01/14 01:48:27;;;;;;;1.47;1.37;;;;;4.40;96311.00;;;;5055113;28;20211;-59
2023/01/14 01:51:04;;;;;;;0.80;0.80;;;;;4.20;96312.00;;;;5055103;28;20180;-59
2023/01/14 01:53:32;;;;;;;1.00;1.00;;;;;4.20;96311.00;;;;5055452;28;20208;-59
2023/01/14 01:56:01;;;;;;;0.70;0.70;;;;;4.40;96313.00;;;;5037081;28;20196;-59
2023/01/14 01:58:30;;;;;;;0.83;0.83;;;;;4.30;96315.00;;;;5055000;28;20201;-59
2023/01/14 02:00:58;;;;;;;0.83;0.83;;;;;4.30;96310.00;;;;5054948;28;20250;-59
2023/01/14 02:03:33;;;;;;;1.10;1.10;;;;;4.20;96316.00;;;;5054729;28;20271;-59
2023/01/14 02:06:01;;;;;;;0.63;0.63;;;;;4.20;96317.00;;;;5055198;28;20184;-59
2023/01/14 02:08:29;;;;;;;0.67;0.67;;;;;4.20;96315.00;;;;5054715;28;20220;-59
2023/01/14 02:11:16;;;;;;;0.90;0.90;;;;;4.20;96309.00;;;;5054893;28;20192;-59
2023/01/14 02:13:57;;;;;;;0.87;0.87;;;;;4.20;96300.00;;;;5038117;28;20649;-60
2023/01/14 02:16:38;;;;;;;2.73;2.30;;;;;4.10;96302.00;;;;5054663;28;20237;-59
2023/01/14 02:19:17;;;;;;;0.60;0.60;;;;;4.10;96304.00;;;;5054865;28;20580;-59
2023/01/14 02:21:52;;;;;;;0.63;0.63;;;;;4.00;96317.00;;;;5054486;28;20212;-59
2023/01/14 02:25:04;;;;;;;0.63;0.63;;;;;4.00;96312.00;;;;5055007;28;20184;-59
2023/01/14 02:27:42;;;;;;;0.80;0.80;;;;;4.10;96312.00;;;;5054513;28;20593;-59
2023/01/14 02:30:37;;;;;;;0.90;0.90;;;;;3.90;96320.00;;;;5054306;28;20207;-59
2023/01/14 02:33:24;;;;;;;0.80;0.80;;;;;3.70;96322.00;;;;5054364;28;20220;-59
2023/01/14 02:35:55;;;;;;;0.60;0.60;;;;;3.70;96298.00;;;;5054439;28;20184;-59
2023/01/14 02:38:30;;;;;;;0.60;0.60;;;;;3.70;96332.00;;;;5054512;28;20185;-60
2023/01/14 02:41:03;;;;;;;0.67;0.67;;;;;3.70;96324.00;;;;5054326;28;20584;-59
2023/01/14 02:46:28;;;;;;;0.60;0.60;;;;;3.70;96305.00;;;;5054329;28;20245;-60
2023/01/14 02:48:56;;;;;;;0.60;0.60;;;;;3.60;96302.00;;;;5054475;28;20205;-59
2023/01/14 02:51:25;;;;;;;0.90;0.90;;;;;3.70;96300.00;;;;5054385;28;20196;-59
2023/01/14 02:53:52;;;;;;;0.80;0.80;;;;;3.70;96303.00;;;;5053881;28;20192;-59
2023/01/14 02:56:20;;;;;;;0.63;0.63;;;;;3.60;96306.00;;;;5053533;28;20192;-60
2023/01/14 02:59:07;;;;;;;19.83;1.07;;;;;3.60;96306.00;;;;5054079;28;20185;-60
2023/01/14 03:01:53;;;;;;;1.00;1.00;;;;;3.50;96309.00;;;;5053699;28;20234;-60
2023/01/14 03:04:36;;;;;;;7.53;2.10;;;;;3.60;96315.00;;;;5053460;28;20242;-60
2023/01/14 03:07:12;;;;;;;0.70;0.70;;;;;3.60;96326.00;;;;5053888;28;20624;-59
2023/01/14 03:09:50;;;;;;;3.30;1.37;;;;;3.80;96308.00;;;;5053547;28;20249;-59
2023/01/14 03:12:29;;;;;;;3.20;2.10;;;;;3.80;96312.00;;;;5053731;28;20617;-59
2023/01/14 03:15:05;;;;;;;0.70;0.70;;;;;3.70;96305.00;;;;5053609;28;20189;-60
2023/01/14 03:17:39;;;;;;;2.00;1.33;;;;;3.60;96300.00;;;;5053472;28;20187;-59
2023/01/14 03:20:12;;;;;;;0.90;0.90;;;;;3.70;96290.00;;;;5053687;28;20606;-59
2023/01/14 03:22:42;;;;;;;0.80;0.80;;;;;3.60;96286.00;;;;5053331;28;20216;-59
2023/01/14 03:25:11;;;;;;;0.70;0.70;;;;;3.60;96285.00;;;;5053331;28;20556;-59
2023/01/14 03:27:40;;;;;;;1.27;1.23;;;;;3.60;96279.00;;;;5053666;28;20192;-59
2023/01/14 03:30:13;;;;;;;0.80;0.80;;;;;3.60;96271.00;;;;5053434;28;20208;-59
2023/01/14 03:32:45;;;;;;;0.70;0.70;;;;;3.50;96261.00;;;;5053351;28;20215;-59
2023/01/14 03:35:17;;;;;;;0.70;0.70;;;;;3.50;96267.00;;;;5053664;28;20520;-59
2023/01/14 03:37:50;;;;;;;2.10;1.20;;;;;3.50;96251.00;;;;5053078;28;20212;-59
2023/01/14 03:40:19;;;;;;;1.10;1.07;;;;;3.50;96245.00;;;;5053103;28;20632;-60
2023/01/14 03:42:51;;;;;;;1.23;1.23;;;;;3.50;96251.00;;;;5053264;28;20227;-59
2023/01/14 03:45:22;;;;;;;3.30;2.03;;;;;3.50;96256.00;;;;5053358;28;20238;-59
2023/01/14 03:47:51;;;;;;;1.23;0.90;;;;;3.60;96251.00;;;;5052990;28;20184;-59
2023/01/14 03:50:20;;;;;;;5.10;1.27;;;;;3.60;96258.00;;;;5052941;28;20227;-59
2023/01/14 03:53:01;;;;;;;0.70;0.70;;;;;3.60;96252.00;;;;5053114;28;20219;-59
2023/01/14 03:55:37;;;;;;;1.63;1.53;;;;;3.50;96249.00;;;;5052990;28;20258;-63
2023/01/14 03:58:11;;;;;;;0.70;0.70;;;;;3.50;96250.00;;;;5053011;28;20187;-59
2023/01/14 04:00:44;;;;;;;0.60;0.60;;;;;3.70;96245.00;;;;5053395;28;20180;-59
2023/01/14 04:03:14;;;;;;;0.70;0.70;;;;;3.70;96240.00;;;;5034942;28;20243;-60
2023/01/14 04:05:42;;;;;;;0.60;0.60;;;;;3.60;96238.00;;;;5052899;28;20257;-59
2023/01/14 04:08:10;;;;;;;0.70;0.70;;;;;3.60;96238.00;;;;5036801;28;20674;-59
2023/01/14 04:10:37;;;;;;;0.63;0.63;;;;;3.70;96220.00;;;;5056873;28;20208;-59
2023/01/14 04:15:50;;;;;;;1.13;1.13;;;;;3.70;96208.00;;;;5057678;28;20535;-59
2023/01/14 04:18:19;;;;;;;1.90;0.90;;;;;3.60;96217.00;;;;5056835;28;20269;-59
2023/01/14 04:20:46;;;;;;;0.60;0.60;;;;;3.70;96220.00;;;;5056776;28;20215;-59
2023/01/14 04:23:13;;;;;;;1.67;1.57;;;;;3.50;96218.00;;;;5056684;28;20216;-59
2023/01/14 04:25:41;;;;;;;0.90;0.90;;;;;3.60;96214.00;;;;5056675;28;20254;-59
2023/01/14 04:28:08;;;;;;;1.27;1.27;;;;;3.60;96216.00;;;;5056838;28;20202;-59
2023/01/14 04:30:36;;;;;;;1.27;1.27;;;;;3.60;96217.00;;;;5056461;28;20296;-59
2023/01/14 04:33:03;;;;;;;0.60;0.60;;;;;3.50;96228.00;;;;5056479;28;20220;-59
2023/01/14 04:35:32;;;;;;;0.70;0.70;;;;;3.40;96213.00;;;;5056493;28;20196;-59
2023/01/14 04:37:59;;;;;;;0.77;0.77;;;;;3.40;96209.00;;;;5056455;28;20192;-59
2023/01/14 04:40:27;;;;;;;1.07;1.07;;;;;3.30;96203.00;;;;5056376;28;20199;-60
2023/01/14 04:42:54;;;;;;;0.70;0.70;;;;;3.30;96204.00;;;;5056318;28;20227;-59
2023/01/14 04:45:21;;;;;;;0.60;0.60;;;;;3.40;96206.00;;;;5056619;28;20192;-59
2023/01/14 04:47:50;;;;;;;0.80;0.80;;;;;3.50;96191.00;;;;5056531;28;20196;-59
2023/01/14 04:50:33;;;;;;;0.60;0.60;;;;;3.50;96192.00;;;;5054888;28;20682;-59
2023/01/14 04:53:13;;;;;;;0.70;0.70;;;;;3.50;96200.00;;;;5056676;28;20282;-60
2023/01/14 04:55:43;;;;;;;1.00;0.93;;;;;3.40;96183.00;;;;5038273;28;20697;-60
2023/01/14 04:58:13;;;;;;;0.70;0.70;;;;;3.50;96186.00;;;;5056556;28;20228;-57
2023/01/14 05:00:41;;;;;;;4.70;0.97;;;;;3.50;96181.00;;;;5056122;28;20617;-60
2023/01/14 05:03:10;;;;;;;1.80;1.43;;;;;3.60;96188.00;;;;5055779;28;20569;-60
2023/01/14 05:05:38;;;;;;;0.67;0.67;;;;;3.50;96187.00;;;;5056035;28;20204;-60
2023/01/14 05:08:07;;;;;;;0.67;0.67;;;;;3.60;96191.00;;;;5056115;28;20246;-60
2023/01/14 05:10:36;;;;;;;0.70;0.70;;;;;3.50;96191.00;;;;5055986;28;20219;-58
2023/01/14 05:13:07;;;;;;;1.00;1.00;;;;;3.60;96185.00;;;;5055661;28;20700;-58
2023/01/14 05:15:38;;;;;;;0.97;0.97;;;;;3.60;96186.00;;;;5055985;28;20213;-58
2023/01/14 05:18:06;;;;;;;1.47;1.37;;;;;3.60;96181.00;;;;5055511;28;20199;-59
2023/01/14 05:20:34;;;;;;;0.67;0.67;;;;;3.50;96179.00;;;;5055620;28;20258;-59
2023/01/14 05:23:04;;;;;;;0.63;0.63;;;;;3.40;96184.00;;;;5055529;28;20292;-59
2023/01/14 05:25:34;;;;;;;1.30;1.20;;;;;3.40;96183.00;;;;5055484;28;20196;-60
2023/01/14 05:28:04;;;;;;;1.10;1.10;;;;;3.40;96184.00;;;;5055543;28;20193;-59
2023/01/14 05:30:32;;;;;;;0.70;0.70;;;;;3.40;96175.00;;;;5037576;28;20216;-59
2023/01/14 05:32:59;;;;;;;0.70;0.70;;;;;3.30;96185.00;;;;5055277;28;20208;-59
2023/01/14 05:35:27;;;;;;;0.73;0.73;;;;;3.40;96175.00;;;;5055653;28;20570;-59
2023/01/14 05:37:54;;;;;;;1.17;1.00;;;;;3.50;96168.00;;;;5055305;28;20195;-59
2023/01/14 05:40:22;;;;;;;1.07;1.07;;;;;3.30;96155.00;;;;5055347;28;20199;-59
2023/01/14 05:45:41;;;;;;;0.60;0.60;;;;;3.40;96154.00;;;;5055455;28;20624;-59
2023/01/14 05:48:09;;;;;;;1.13;1.10;;;;;3.20;96150.00;;;;5055659;28;20267;-59
2023/01/14 05:50:37;;;;;;;7.90;1.20;;;;;3.20;96147.00;;;;5055298;28;20663;-59
2023/01/14 05:53:04;;;;;;;0.60;0.60;;;;;3.30;96145.00;;;;5037146;28;20702;-59
2023/01/14 05:55:32;;;;;;;0.70;0.70;;;;;3.40;96153.00;;;;5055322;28;20262;-60
2023/01/14 05:58:00;;;;;;;0.60;0.60;;;;;3.40;96142.00;;;;5054865;28;20203;-58
2023/01/14 06:08:46;;;;;;;0.60;0.60;;;;;3.50;96126.00;;;;5054707;28;20233;-58
2023/01/14 06:11:13;;;;;;;0.70;0.70;;;;;3.60;96126.00;;;;5054752;28;20246;-59
2023/01/14 06:13:41;;;;;;;0.80;0.80;;;;;3.50;96134.00;;;;5054652;28;20206;-59
2023/01/14 06:16:09;;;;;;;1.23;1.23;;;;;3.60;96126.00;;;;5054577;28;20200;-58
2023/01/14 06:18:41;;;;;;;1.50;1.27;;;;;3.60;96131.00;;;;5054526;28;20248;-58
2023/01/14 06:21:10;;;;;;;1.53;1.43;;;;;3.60;96130.00;;;;5055000;28;20176;-58
2023/01/14 06:23:38;;;;;;;0.87;0.87;;;;;3.60;96127.00;;;;5054689;28;20220;-58
2023/01/14 06:26:09;;;;;;;1.03;1.00;;;;;3.70;96123.00;;;;5054351;28;20188;-58
2023/01/14 06:28:37;;;;;;;1.13;1.13;;;;;3.60;96122.00;;;;5054322;28;20202;-58
2023/01/14 06:31:11;;;;;;;0.60;0.60;;;;;3.50;96084.00;;;;5053803;28;20675;-59
2023/01/14 06:33:40;;;;;;;0.70;0.70;;;;;3.40;96124.00;;;;5054255;28;20184;-59
2023/01/14 06:36:08;;;;;;;0.60;0.60;;;;;3.40;96123.00;;;;5054257;28;20199;-59
2023/01/14 06:38:37;;;;;;;5.40;0.90;;;;;3.40;96115.00;;;;5054163;28;20196;-59
2023/01/14 06:41:06;;;;;;;0.70;0.70;;;;;3.60;96114.00;;;;5054251;28;20656;-59
2023/01/14 06:43:34;;;;;;;1.80;1.70;;;;;3.60;96120.00;;;;5053948;28;20521;-59
2023/01/14 06:46:01;;;;;;;0.80;0.73;;;;;3.90;96120.00;;;;5054170;28;20302;-58
2023/01/14 06:48:29;;;;;;;5.00;2.10;;;;;3.90;96127.00;;;;5053884;28;20203;-58
2023/01/14 06:51:02;;;;;;;0.70;0.70;;;;;4.00;96127.00;;;;5054019;28;20223;-58
2023/01/14 06:53:30;;;;;;;0.83;0.83;;;;;3.90;96121.00;;;;5053747;28;20273;-58
2023/01/14 06:56:02;;;;;;;2.43;1.00;;;;;4.00;96118.00;;;;5054365;28;20207;-57
2023/01/14 06:58:29;;;;;;;0.80;0.80;;;;;4.10;96124.00;;;;5054086;28;20181;-58
2023/01/14 07:00:57;;;;;;;0.73;0.73;;;;;4.10;96116.00;;;;5053715;28;20346;-58
2023/01/14 07:03:24;;;;;;;0.77;0.77;;;;;3.90;96107.00;;;;5054229;28;20224;-58
2023/01/14 07:05:52;;;;;;;1.93;0.87;;;;;3.90;96101.00;;;;5053631;28;20655;-57
2023/01/14 07:08:21;;;;;;;0.87;0.87;;;;;3.90;96099.00;;;;5053827;28;20560;-58
2023/01/14 07:10:50;;;;;;;1.20;1.10;;;;;4.00;96099.00;;;;5053510;28;20220;-58
2023/01/14 07:13:18;;;;;;;2.80;1.10;;;;;3.90;96083.00;;;;5053720;28;20211;-58
2023/01/14 07:15:47;;;;;;;25.03;2.20;;;;;4.00;96086.00;;;;5053689;28;20196;-58
2023/01/14 07:18:15;;;;;;;0.80;0.80;;;;;4.10;96075.00;;;;5053413;28;20200;-58
2023/01/14 07:20:42;;;;;;;1.23;0.97;;;;;4.30;96066.00;;;;5053731;28;20195;-58
2023/01/14 07:23:10;;;;;;;0.63;0.63;;;;;4.20;96069.00;;;;5053308;28;20219;-58
2023/01/14 07:25:39;;;;;;;0.67;0.67;;;;;4.30;96063.00;;;;5053416;28;20192;-58
2023/01/14 07:28:07;;;;;;;0.97;0.97;;;;;4.40;96047.00;;;;5053337;28;20202;-58
2023/01/14 07:30:34;;;;;;;0.70;0.70;;;;;4.40;96042.00;;;;5053465;28;20274;-59
2023/01/14 07:33:02;;;;;;;1.07;0.73;;;;;4.50;96048.00;;;;5053469;28;20576;-59
2023/01/14 07:35:30;;;;;;;0.60;0.60;;;;;4.60;96031.00;;;;5053454;28;20202;-58
2023/01/14 07:37:59;;;;;;;1.07;1.07;;;;;4.60;96042.00;;;;5053375;28;20204;-59
2023/01/14 07:40:27;;;;;;;0.83;0.83;;;;;4.70;96036.00;;;;5035591;28;20196;-58
2023/01/14 07:42:57;;;;;;;0.80;0.80;;;;;4.60;96034.00;;;;5052176;28;20212;-58
2023/01/14 07:45:25;;;;;;;1.07;1.07;;;;;4.60;96036.00;;;;5053341;28;20195;-58
2023/01/14 07:47:52;;;;;;;1.90;1.80;;;;;4.60;96041.00;;;;5053051;28;20192;-58
2023/01/14 07:50:21;;;;;;;1.07;1.07;;;;;4.60;96047.00;;;;5053215;28;20261;-59
2023/01/14 07:52:53;;;;;;;0.60;0.60;;;;;4.60;96033.00;;;;5052954;28;20286;-59
2023/01/14 07:55:21;;;;;;;0.97;0.97;;;;;4.70;96030.00;;;;5053299;28;20542;-59
2023/01/14 07:57:49;;;;;;;0.50;0.50;;;;;4.60;96039.00;;;;5053232;28;20192;-59
2023/01/14 08:00:19;;;;;;;0.70;0.70;;;;;4.60;96028.00;;;;5053180;28;20532;-58
2023/01/14 08:02:47;;;;;;;0.77;0.77;;;;;4.70;96019.00;;;;5052983;28;20703;-58
2023/01/14 08:05:15;;;;;;;0.70;0.70;;;;;4.70;96023.00;;;;5053066;28;20196;-58
2023/01/14 08:07:42;;;;;;;0.73;0.73;;;;;4.80;96017.00;;;;5053072;28;20554;-58
2023/01/14 08:10:11;;;;;;;0.60;0.60;;;;;4.80;96008.00;;;;5053298;28;20220;-58
2023/01/14 08:12:38;;;;;;;1.00;1.00;;;;;4.70;96020.00;;;;5053183;28;20215;-58
2023/01/14 08:15:07;;;;;;;0.87;0.87;;;;;4.90;96016.00;;;;5052835;28;20196;-58
2023/01/14 08:17:36;;;;;;;1.37;1.27;;;;;5.00;96031.00;;;;5052901;28;20200;-58
2023/01/14 08:20:04;;;;;;;1.20;1.20;;;;;5.00;96016.00;;;;5053079;28;20230;-58
2023/01/14 08:22:32;;;;;;;1.60;1.60;;;;;4.90;96021.00;;;;5052878;28;20219;-59
2023/01/14 08:24:59;;;;;;;0.50;0.50;;;;;5.00;96018.00;;;;5053284;28;20192;-59
2023/01/14 08:27:27;;;;;;;0.70;0.70;;;;;5.10;96011.00;;;;5053244;28;20201;-59
2023/01/14 08:29:55;;;;;;;0.80;0.80;;;;;5.00;96007.00;;;;5052897;28;20604;-59
2023/01/14 08:32:23;;;;;;;7.53;1.33;;;;;5.10;96001.00;;;;5053175;28;20307;-59
2023/01/14 08:34:52;;;;;;;1.33;1.33;;;;;5.10;96004.00;;;;5052825;28;20184;-58
2023/01/14 08:37:19;;;;;;;0.63;0.63;;;;;5.20;96019.00;;;;5052622;28;20203;-58
2023/01/14 08:39:47;;;;;;;2.10;1.37;;;;;5.20;96019.00;;;;5052930;28;20194;-58
2023/01/14 08:42:14;;;;;;;1.30;1.20;;;;;5.10;96013.00;;;;5053052;28;20208;-58
2023/01/14 08:44:42;;;;;;;0.67;0.67;;;;;5.30;96002.00;;;;5052783;28;20199;-58
2023/01/14 08:47:09;;;;;;;0.60;0.60;;;;;5.30;96005.00;;;;5034646;28;20204;-58
2023/01/14 08:49:37;;;;;;;1.13;1.13;;;;;5.60;96003.00;;;;5052402;28;20245;-59
2023/01/14 08:52:06;;;;;;;1.33;1.23;;;;;5.50;96000.00;;;;5052370;28;20219;-60
2023/01/14 08:54:34;;;;;;;0.90;0.90;;;;;5.60;95998.00;;;;5055034;28;20203;-59
2023/01/14 08:57:01;;;;;;;0.80;0.80;;;;;5.50;95990.00;;;;5056425;28;20257;-59
2023/01/14 08:59:29;;;;;;;0.90;0.90;;;;;5.60;95974.00;;;;5056213;28;20200;-59
2023/01/14 09:01:56;;;;;;;0.70;0.70;;;;;5.80;95971.00;;;;5056070;28;20216;-59
2023/01/14 09:04:25;;;;;;;5.73;1.20;;;;;5.70;95964.00;;;;5056079;28;20192;-59
2023/01/14 09:18:08;;;;;;;0.60;0.60;;;;;5.70;95944.00;;;;5056370;28;20257;-59
2023/01/14 09:20:38;;;;;;;0.60;0.60;;;;;5.80;95958.00;;;;5055796;28;20253;-59
2023/01/14 09:23:08;;;;;;;0.80;0.80;;;;;5.90;95952.00;;;;5055666;28;20208;-60
2023/01/14 09:25:37;;;;;;;1.60;0.90;;;;;5.90;95945.00;;;;5055973;28;20194;-59
2023/01/14 09:28:05;;;;;;;2.67;1.60;;;;;6.10;95951.00;;;;5055879;28;20551;-59
2023/01/14 09:30:32;;;;;;;0.70;0.70;;;;;6.10;95946.00;;;;5055513;28;20219;-59
2023/01/14 09:33:01;;;;;;;0.70;0.70;;;;;6.20;95956.00;;;;5055481;28;20212;-60
2023/01/14 09:35:29;;;;;;;0.83;0.83;;;;;6.30;95931.00;;;;5055514;28;20193;-59
2023/01/14 09:37:57;;;;;;;3.30;1.70;;;;;6.40;95931.00;;;;5055416;28;20249;-59
2023/01/14 09:40:24;;;;;;;0.50;0.50;;;;;6.40;95933.00;;;;5055563;28;20667;-59
2023/01/14 09:42:53;;;;;;;0.60;0.60;;;;;6.50;95934.00;;;;5037461;28;20274;-61
2023/01/14 09:45:26;;;;;;;0.80;0.80;;;;;6.20;95932.00;;;;5055315;28;20195;-60
2023/01/14 09:47:54;;;;;;;2.73;1.10;;;;;6.40;95936.00;;;;5055590;28;20527;-60
2023/01/14 09:50:29;;;;;;;0.90;0.90;;;;;6.40;95936.00;;;;5055176;28;20195;-60
2023/01/14 09:53:07;;;;;;;0.60;0.60;;;;;6.40;95942.00;;;;5055217;28;20289;-60
2023/01/14 09:55:41;;;;;;;0.57;0.57;;;;;6.50;95941.00;;;;5055416;28;20180;-60
2023/01/14 09:58:19;;;;;;;5.57;1.07;;;;;6.50;95938.00;;;;5055507;28;20184;-60
2023/01/14 10:00:57;;;;;;;0.60;0.60;;;;;6.50;95940.00;;;;5055586;28;20184;-63
2023/01/14 10:03:37;;;;;;;0.60;0.60;;;;;6.60;95938.00;;;;5054807;28;20225;-60
2023/01/14 10:06:10;;;;;;;0.60;0.60;;;;;6.40;95926.00;;;;5053889;28;20187;-60
2023/01/14 10:08:42;;;;;;;0.50;0.50;;;;;6.40;95915.00;;;;5055236;28;20190;-60
2023/01/14 10:11:12;;;;;;;0.90;0.90;;;;;6.70;95881.00;;;;5054848;28;20200;-61
2023/01/14 10:13:46;;;;;;;0.70;0.70;;;;;6.80;95853.00;;;;5037916;28;20705;-60
2023/01/14 10:16:18;;;;;;;0.60;0.60;;;;;7.00;95848.00;;;;5054787;28;20190;-61
2023/01/14 10:18:52;;;;;;;0.60;0.60;;;;;7.30;95837.00;;;;5054693;28;20183;-60
2023/01/14 10:21:27;;;;;;;0.50;0.50;;;;;7.10;95844.00;;;;5055049;28;20186;-59
2023/01/14 10:23:54;;;;;;;0.60;0.60;;;;;7.20;95851.00;;;;5054903;28;20237;-59
2023/01/14 10:26:26;;;;;;;0.60;0.60;;;;;7.10;95850.00;;;;5055084;28;20196;-60
2023/01/14 10:29:01;;;;;;;0.53;0.53;;;;;7.20;95841.00;;;;5054937;28;20191;-60
2023/01/14 10:31:30;;;;;;;0.60;0.60;;;;;7.20;95837.00;;;;5054336;28;20207;-60
2023/01/14 10:33:59;;;;;;;0.60;0.60;;;;;7.40;95836.00;;;;5054347;28;20566;-60
2023/01/14 10:36:30;;;;;;;0.60;0.60;;;;;7.40;95834.00;;;;5054624;28;20607;-59
2023/01/14 10:38:59;;;;;;;0.73;0.73;;;;;7.30;95820.00;;;;5054864;28;20267;-58
2023/01/14 10:44:21;;;;;;;0.50;0.50;;;;;7.40;95812.00;;;;5054471;28;20302;-59
2023/01/14 10:46:48;;;;;;;2.83;1.80;;;8.00;79.20;7.20;95816.00;;;;5054399;28;20183;-59
2023/01/14 10:49:19;;;;;;;0.80;0.80;;;;;7.30;95814.00;;;;5054344;28;20218;-60
2023/01/14 10:51:49;;;;;;;1.17;1.07;;;8.00;78.90;7.40;95791.00;;;;5053935;28;20227;-59
2023/01/14 10:54:18;;;;;;;0.80;0.80;;;;;7.50;95802.00;;;;5054293;28;20210;-59
2023/01/14 10:56:49;;;;;;;0.67;0.67;;;;;7.70;95778.00;;;;5053919;28;20223;-59
2023/01/14 10:59:43;;;;;;;0.60;0.60;;;;;7.60;95787.00;;;;5054521;28;20180;-61
2023/01/14 11:02:42;;;;;;;0.60;0.60;;;;;7.50;95766.00;;;;5053965;28;20220;-58
2023/01/14 11:05:27;;;;;;;1.00;1.00;;;;;7.50;95761.00;;;;5053919;28;20222;-59
2023/01/14 11:07:57;;;;;;;0.50;0.50;;;;;7.70;95763.00;;;;5054264;28;20581;-59
2023/01/14 11:10:27;;;;;;;1.00;1.00;;;;;7.40;95770.00;;;;5053642;28;20199;-59
2023/01/14 11:12:55;;;;;;;0.57;0.57;;;;;7.50;95758.00;;;;5053460;28;20288;-59
2023/01/14 11:15:41;;;;;;;0.57;0.57;;;;;7.70;95760.00;;;;5053523;28;20192;-59
2023/01/14 11:18:26;;;;;;;0.53;0.53;;;;;7.50;95755.00;;;;5052538;28;20628;-61
2023/01/14 11:21:04;;;;;;;1.10;1.00;;;;;7.60;95757.00;;;;5053811;28;20195;-59
2023/01/14 11:23:34;;;;;;;0.50;0.50;;;;;7.60;95740.00;;;;5053624;28;20208;-59
2023/01/14 11:26:07;;;;;;;0.50;0.50;;;;;7.60;95744.00;;;;5054113;28;20530;-59
2023/01/14 11:28:37;;;;;;;0.70;0.70;;;;;7.70;95733.00;;;;5053494;28;20180;-59
2023/01/14 11:31:07;;;;;;;0.60;0.60;;;;;7.70;95728.00;;;;5053426;28;20215;-60
2023/01/14 11:33:34;;;;;;;0.57;0.57;;;;;7.60;95738.00;;;;5053208;28;20687;-60
2023/01/14 11:36:08;;;;;;;0.60;0.60;;;;;7.60;95739.00;;;;5053816;28;20279;-60
2023/01/14 11:38:44;;;;;;;0.70;0.70;;;;;7.80;95709.00;;;;5053573;28;20195;-60
2023/01/14 11:41:35;;;;;;;0.50;0.50;;;;;7.80;95708.00;;;;5053362;28;20342;-59
2023/01/14 11:44:04;;;;;;;0.50;0.50;;;;;7.70;95714.00;;;;5053474;28;20188;-60
2023/01/14 11:46:35;;;;;;;0.50;0.50;;;;;7.90;95697.00;;;;5053117;28;20192;-59
2023/01/14 11:49:16;;;;;;;0.60;0.60;;;;;7.60;95691.00;;;;5053368;28;20551;-59
2023/01/14 11:51:57;;;;;;;0.57;0.57;;;;;7.60;95685.00;;;;5052936;28;20285;-60
2023/01/14 11:54:28;;;;;;;0.53;0.53;;;;;7.70;95677.00;;;;5053355;28;20191;-60
2023/01/14 11:56:55;;;;;;;0.60;0.60;;;;;7.70;95666.00;;;;5053334;28;20176;-59
2023/01/14 11:59:29;;;;;;;0.63;0.63;;;;;7.60;95658.00;;;;5052963;28;20690;-60
2023/01/14 12:02:01;;;;;;;0.67;0.67;;;;;7.70;95679.00;;;;5053212;28;20746;-59
2023/01/14 12:04:34;;;;;;;0.60;0.60;;;;;7.80;95658.00;;;;5053688;28;20230;-60
2023/01/14 12:07:05;;;;;;;0.60;0.60;;;;;7.80;95663.00;;;;5052906;28;20187;-60
2023/01/14 12:09:45;;;;;;;1.47;1.37;;;;;7.70;95656.00;;;;5053452;28;20193;-60
2023/01/14 12:12:17;;;;;;;1.00;1.00;;;;;7.80;95649.00;;;;5053094;28;20770;-60
2023/01/14 12:17:41;;;;;;;1.37;1.27;;;;;7.80;95634.00;;;;5053466;28;20176;-59
2023/01/14 12:20:13;;;;;;;0.60;0.60;;;;;7.70;95619.00;;;;5053366;28;20187;-61
2023/01/14 12:22:47;;;;;;;1.53;1.07;;;;;7.80;95615.00;;;;5052874;28;20211;-60
2023/01/14 12:25:20;;;;;;;0.80;0.80;;;;;7.80;95608.00;;;;5052847;28;20183;-58
2023/01/14 12:27:59;;;;;;;0.60;0.60;;;;;7.90;95593.00;;;;5052985;28;20262;-59
2023/01/14 12:30:41;;;;;;;0.60;0.60;;;;;7.90;95587.00;;;;5057081;28;20183;-59
2023/01/14 12:33:17;;;;;;;0.43;0.43;;;;;8.00;95579.00;;;;5038698;28;20695;-60
2023/01/14 12:35:49;;;;;;;0.67;0.67;;;;;8.00;95578.00;;;;5056758;28;20219;-59
2023/01/14 12:46:44;;;;;;;0.60;0.60;;;;;8.50;95553.00;;;;5056802;28;20184;-60
2023/01/14 12:49:13;;;;;;;0.60;0.60;;;;;8.40;95544.00;;;;5056375;28;20196;-60
2023/01/14 12:51:43;;;;;;;0.60;0.60;;;;;8.50;95551.00;;;;5056162;28;20227;-59
2023/01/14 12:54:22;;;;;;;0.73;0.73;;;;;8.60;95549.00;;;;5056352;28;20196;-59
2023/01/14 12:56:53;;;;;;;0.60;0.60;;;;;8.40;95526.00;;;;5056318;28;20242;-60
2023/01/14 12:59:25;;;;;;;1.07;1.07;;;;;8.40;95531.00;;;;5056224;28;20235;-59
2023/01/14 13:01:56;;;;;;;1.33;1.27;;;;;8.40;95528.00;;;;5056026;28;20699;-59
2023/01/14 13:04:28;;;;;;;0.50;0.50;;;;;8.60;95530.00;;;;5056330;28;20187;-59
2023/01/14 13:06:59;;;;;;;0.60;0.60;;;;;8.60;95524.00;;;;5055990;28;20646;-58
2023/01/14 13:09:31;;;;;;;0.70;0.70;;;;;8.50;95520.00;;;;5056246;28;20194;-59
2023/01/14 13:12:00;;;;;;;0.60;0.60;;;;;8.70;95523.00;;;;5056055;28;20702;-60
2023/01/14 13:14:35;;;;;;;0.60;0.60;;;;;8.80;95507.00;;;;5056405;28;20196;-60
2023/01/14 13:17:06;;;;;;;0.60;0.60;;;;;8.90;95498.00;;;;5056310;28;20171;-60
2023/01/14 13:19:52;;;;;;;0.60;0.60;;;;;9.10;95491.00;;;;5055734;28;20184;-59
2023/01/14 13:22:45;;;;;;;1.63;0.80;;;;;9.00;95469.00;;;;5055814;28;20640;-60
2023/01/14 13:25:43;;;;;;;6.23;1.37;;;;;9.10;95463.00;;;;5055858;28;20181;-59
2023/01/14 13:28:56;;;;;;;0.60;0.60;;;;;9.30;95463.00;;;;5055663;28;20184;-60